Time;durP1;ratioP1;P1;durP2;ratioP2;P2;SDS_P1;SDS_P2;PMS_P1;PMS_P2;Temp;Humidity;BMP_temperature;BMP_pressure;BME280_temperature;BME280_humidity;BME280_pressure;Samples;Min_cycle;Max_cycle;Signal;HPM_P1;HPM_P2
2021/03/12 00:01:01;;;;;;;5.78;1.77;;;7.50;99.90;;;;;;5115362;28;20054;-53
2021/03/12 00:03:32;;;;;;;7.15;1.65;;;7.40;99.90;;;;;;5108421;28;20032;-53
2021/03/12 00:06:01;;;;;;;12.43;1.20;;;7.20;99.90;;;;;;5111238;28;20027;-54
2021/03/12 00:08:45;;;;;;;4.97;1.20;;;7.10;99.90;;;;;;5117546;28;20044;-52
2021/03/12 00:11:12;;;;;;;13.60;3.15;;;6.90;99.90;;;;;;5105671;28;20035;-55
2021/03/12 00:13:38;;;;;;;9.25;2.00;;;6.80;99.90;;;;;;5114451;28;20055;-56
2021/03/12 00:16:05;;;;;;;9.73;2.70;;;6.70;99.90;;;;;;5142085;22;20039;-54
2021/03/12 00:18:41;;;;;;;11.02;1.75;;;6.60;99.90;;;;;;5126625;27;20404;-55
2021/03/12 00:21:08;;;;;;;7.25;1.30;;;6.60;99.90;;;;;;5126022;27;20028;-56
2021/03/12 00:23:34;;;;;;;16.55;1.95;;;6.50;99.90;;;;;;5116740;27;20031;-57
2021/03/12 00:26:00;;;;;;;10.60;1.85;;;6.50;99.90;;;;;;5123312;27;20051;-57
2021/03/12 00:28:26;;;;;;;8.60;1.80;;;6.50;99.90;;;;;;5109609;28;20020;-56
2021/03/12 00:30:52;;;;;;;15.77;3.70;;;6.60;99.90;;;;;;5115950;27;20020;-57
2021/03/12 00:33:18;;;;;;;13.15;2.53;;;6.60;99.90;;;;;;5110456;27;20473;-57
2021/03/12 00:35:45;;;;;;;10.20;2.08;;;6.70;99.90;;;;;;5110852;27;20024;-54
2021/03/12 00:38:12;;;;;;;14.57;2.85;;;6.70;99.90;;;;;;5115464;27;20114;-56
2021/03/12 00:40:47;;;;;;;13.90;2.10;;;6.70;99.90;;;;;;5109760;28;20542;-55
2021/03/12 00:43:13;;;;;;;6.85;1.50;;;6.80;99.90;;;;;;5114580;28;20027;-56
2021/03/12 00:45:41;;;;;;;6.43;2.90;;;6.80;99.90;;;;;;5109881;27;20028;-57
2021/03/12 00:48:07;;;;;;;13.57;2.15;;;6.80;99.90;;;;;;5111988;28;20023;-54
2021/03/12 00:50:36;;;;;;;13.13;1.98;;;6.90;99.90;;;;;;5111327;27;20504;-56
2021/03/12 00:53:02;;;;;;;8.00;1.70;;;7.00;99.90;;;;;;5111733;28;20401;-56
2021/03/12 00:55:28;;;;;;;8.10;1.58;;;7.10;99.90;;;;;;5117282;27;20038;-57
2021/03/12 00:57:53;;;;;;;11.32;1.70;;;7.20;99.90;;;;;;5113197;27;20028;-56
2021/03/12 01:00:22;;;;;;;12.18;2.25;;;7.30;99.90;;;;;;5112772;28;20032;-54
2021/03/12 01:02:48;;;;;;;5.65;1.50;;;7.20;99.90;;;;;;5111931;27;20024;-57
2021/03/12 01:05:14;;;;;;;11.32;2.22;;;7.20;99.90;;;;;;5114713;27;20076;-56
2021/03/12 01:07:40;;;;;;;10.05;1.30;;;7.20;99.90;;;;;;5092185;28;20059;-56
2021/03/12 01:10:07;;;;;;;10.00;1.33;;;7.10;99.90;;;;;;5112215;28;20024;-54
2021/03/12 01:12:33;;;;;;;6.78;1.52;;;7.10;99.90;;;;;;5114937;27;20027;-55
2021/03/12 01:15:00;;;;;;;9.48;2.03;;;7.10;99.90;;;;;;5112518;28;20031;-55
2021/03/12 01:17:25;;;;;;;9.57;1.70;;;7.10;99.90;;;;;;5111018;28;20047;-56
2021/03/12 01:19:51;;;;;;;8.93;1.83;;;7.10;99.90;;;;;;5110062;27;20024;-57
2021/03/12 01:22:16;;;;;;;6.63;1.52;;;7.00;99.90;;;;;;5113036;28;20039;-58
2021/03/12 01:24:42;;;;;;;11.05;1.90;;;7.00;99.90;;;;;;5103851;28;20047;-54
2021/03/12 01:27:09;;;;;;;15.95;1.55;;;6.90;99.90;;;;;;5107805;27;20046;-54
2021/03/12 01:29:34;;;;;;;11.90;1.85;;;6.90;99.90;;;;;;5113037;27;20558;-55
2021/03/12 01:32:00;;;;;;;10.13;1.90;;;7.00;99.90;;;;;;5108254;27;20119;-51
2021/03/12 01:34:27;;;;;;;9.68;2.67;;;7.00;99.90;;;;;;5109145;28;20027;-54
2021/03/12 01:36:53;;;;;;;11.25;1.73;;;7.10;99.90;;;;;;5106378;28;20404;-54
2021/03/12 01:39:19;;;;;;;5.65;1.30;;;7.10;99.90;;;;;;5110955;28;20107;-56
2021/03/12 01:41:45;;;;;;;9.50;1.90;;;7.00;99.90;;;;;;5101666;28;20114;-56
2021/03/12 01:44:10;;;;;;;12.13;2.35;;;7.10;99.90;;;;;;5108900;28;20107;-54
2021/03/12 01:46:36;;;;;;;10.15;1.90;;;7.00;99.90;;;;;;5112580;27;20035;-56
2021/03/12 01:49:01;;;;;;;8.70;1.40;;;7.00;99.90;;;;;;5111952;27;20407;-54
2021/03/12 01:51:28;;;;;;;11.10;2.30;;;7.00;99.90;;;;;;5107624;27;20190;-53
2021/03/12 01:53:53;;;;;;;11.05;2.13;;;7.00;99.90;;;;;;5114805;27;20028;-55
2021/03/12 01:56:19;;;;;;;19.90;2.30;;;7.00;99.90;;;;;;5106931;28;20023;-54
2021/03/12 01:58:46;;;;;;;9.05;2.10;;;6.90;99.90;;;;;;5111538;28;20032;-54
2021/03/12 02:01:12;;;;;;;17.27;1.85;;;7.00;99.90;;;;;;5106531;27;20082;-58
2021/03/12 02:03:37;;;;;;;16.77;1.85;;;6.90;99.90;;;;;;5106545;28;20028;-54
2021/03/12 02:06:04;;;;;;;10.60;2.53;;;6.90;99.90;;;;;;5110808;28;20032;-56
2021/03/12 02:08:29;;;;;;;8.50;2.45;;;6.90;99.90;;;;;;5100395;28;20103;-56
2021/03/12 02:10:55;;;;;;;12.25;2.28;;;6.90;99.90;;;;;;5106287;27;20106;-55
2021/03/12 02:13:27;;;;;;;18.52;3.15;;;6.80;99.90;;;;;;5111031;28;20489;-55
2021/03/12 02:15:59;;;;;;;10.48;2.22;;;6.80;99.90;;;;;;5110929;28;20031;-54
2021/03/12 02:18:46;;;;;;;14.15;2.63;;;6.70;99.90;;;;;;5107587;27;20500;-55
2021/03/12 02:21:29;;;;;;;10.73;1.92;;;6.70;99.90;;;;;;5104581;28;20432;-57
2021/03/12 02:24:01;;;;;;;11.07;2.28;;;6.70;99.90;;;;;;5107960;28;20050;-54
2021/03/12 02:26:42;;;;;;;21.75;2.30;;;6.70;99.90;;;;;;5106798;28;20032;-55
2021/03/12 02:29:11;;;;;;;8.55;2.10;;;6.70;99.90;;;;;;5106210;27;20074;-55
2021/03/12 02:31:39;;;;;;;24.23;4.10;;;6.60;99.90;;;;;;5107684;28;20106;-54
2021/03/12 02:34:08;;;;;;;7.82;2.08;;;6.60;99.90;;;;;;5110054;28;20030;-56
2021/03/12 02:36:36;;;;;;;16.05;2.40;;;6.70;99.90;;;;;;5106714;28;20038;-55
2021/03/12 02:39:04;;;;;;;10.88;2.40;;;6.70;99.90;;;;;;5103913;27;20073;-57
2021/03/12 02:41:30;;;;;;;9.40;2.63;;;6.60;99.90;;;;;;5107894;28;20106;-54
2021/03/12 02:43:57;;;;;;;19.67;3.15;;;6.60;99.90;;;;;;5110386;27;20145;-57
2021/03/12 02:46:24;;;;;;;18.45;2.95;;;6.60;99.90;;;;;;5108215;28;20097;-53
2021/03/12 02:48:51;;;;;;;14.70;2.50;;;6.60;99.90;;;;;;5110319;28;20146;-57
2021/03/12 02:51:17;;;;;;;12.98;2.97;;;6.60;99.90;;;;;;5104921;27;20028;-56
2021/03/12 02:53:44;;;;;;;14.40;2.35;;;6.60;99.90;;;;;;5110183;28;20023;-58
2021/03/12 02:56:10;;;;;;;24.70;3.33;;;6.60;99.90;;;;;;5104399;28;20012;-57
2021/03/12 02:58:37;;;;;;;16.70;2.63;;;6.60;99.90;;;;;;5103275;28;20019;-56
2021/03/12 03:01:04;;;;;;;16.02;4.13;;;6.70;99.90;;;;;;5106254;28;20020;-56
2021/03/12 03:03:31;;;;;;;14.40;3.33;;;6.70;99.90;;;;;;5103230;28;20490;-55
2021/03/12 03:05:58;;;;;;;26.83;3.30;;;6.70;99.90;;;;;;5109035;28;20106;-56
2021/03/12 03:08:24;;;;;;;20.30;2.45;;;6.70;99.90;;;;;;5103718;28;20312;-56
2021/03/12 03:10:50;;;;;;;21.25;2.97;;;6.70;99.90;;;;;;5106610;28;20019;-53
2021/03/12 03:13:16;;;;;;;10.60;2.40;;;6.70;99.90;;;;;;5108271;28;20438;-55
2021/03/12 03:15:42;;;;;;;26.65;2.90;;;6.70;99.90;;;;;;5102054;28;20035;-57
2021/03/12 03:18:08;;;;;;;14.63;3.45;;;6.70;99.90;;;;;;5110087;28;20028;-54
2021/03/12 03:20:35;;;;;;;19.88;2.13;;;6.70;99.90;;;;;;5106563;28;20425;-54
2021/03/12 03:23:01;;;;;;;13.60;2.03;;;6.70;99.90;;;;;;5109336;28;20035;-57
2021/03/12 03:25:26;;;;;;;14.20;1.75;;;6.70;99.90;;;;;;5102106;28;20081;-55
2021/03/12 03:27:52;;;;;;;13.60;2.55;;;6.80;99.90;;;;;;5107984;28;20102;-55
2021/03/12 03:30:18;;;;;;;12.55;2.50;;;6.80;99.90;;;;;;5105861;28;20028;-53
2021/03/12 03:32:44;;;;;;;9.68;2.03;;;6.90;99.90;;;;;;5108440;28;20359;-56
2021/03/12 03:35:12;;;;;;;22.13;2.58;;;6.90;99.90;;;;;;5110884;28;20026;-55
2021/03/12 03:37:38;;;;;;;15.75;3.15;;;7.00;99.90;;;;;;5105457;28;20028;-56
2021/03/12 03:40:07;;;;;;;11.15;2.92;;;7.00;99.90;;;;;;5109490;28;20452;-57
2021/03/12 03:42:34;;;;;;;20.10;2.22;;;7.00;99.90;;;;;;5105457;28;20028;-52
2021/03/12 03:45:00;;;;;;;19.30;2.55;;;7.00;99.90;;;;;;5107084;28;20153;-55
2021/03/12 03:47:27;;;;;;;14.38;2.03;;;7.00;99.90;;;;;;5110841;28;20120;-55
2021/03/12 03:49:54;;;;;;;11.50;2.92;;;7.00;99.90;;;;;;5106934;28;20031;-56
2021/03/12 03:52:23;;;;;;;19.00;2.17;;;7.10;99.90;;;;;;5105159;28;20055;-54
2021/03/12 03:54:51;;;;;;;15.18;2.08;;;7.10;99.90;;;;;;5106845;28;20031;-56
2021/03/12 03:57:20;;;;;;;22.60;3.90;;;7.20;99.90;;;;;;5108322;28;20023;-55
2021/03/12 03:59:47;;;;;;;19.23;2.05;;;7.20;99.90;;;;;;5108257;28;20024;-56
2021/03/12 04:02:15;;;;;;;18.45;2.63;;;7.20;99.90;;;;;;5098593;28;20059;-55
2021/03/12 04:04:48;;;;;;;16.98;2.42;;;7.20;99.90;;;;;;5109613;28;20139;-56
2021/03/12 04:07:16;;;;;;;13.88;2.47;;;7.20;99.90;;;;;;5104445;28;20028;-55
2021/03/12 04:09:43;;;;;;;16.67;2.53;;;7.20;99.90;;;;;;5108542;28;20554;-54
2021/03/12 04:12:11;;;;;;;13.48;2.55;;;7.10;99.90;;;;;;5107284;28;20023;-56
2021/03/12 04:14:37;;;;;;;16.83;2.28;;;7.10;99.90;;;;;;5105800;28;20490;-57
2021/03/12 04:17:03;;;;;;;33.08;4.57;;;7.10;99.90;;;;;;5109444;28;20035;-55
2021/03/12 04:19:30;;;;;;;24.13;3.63;;;7.10;99.90;;;;;;5107724;28;20132;-56
2021/03/12 04:21:57;;;;;;;14.88;3.13;;;7.10;99.90;;;;;;5105139;27;20032;-57
2021/03/12 04:24:22;;;;;;;14.55;2.92;;;7.10;99.90;;;;;;5106359;28;20085;-55
2021/03/12 04:26:48;;;;;;;15.80;3.92;;;7.00;99.90;;;;;;5112721;28;20040;-55
2021/03/12 04:29:16;;;;;;;17.65;2.92;;;7.00;99.90;;;;;;5112946;28;20023;-54
2021/03/12 04:31:42;;;;;;;27.15;3.88;;;7.00;99.90;;;;;;5108799;28;20047;-54
2021/03/12 04:34:07;;;;;;;24.05;3.53;;;7.00;99.90;;;;;;5113607;28;20100;-54
2021/03/12 04:36:34;;;;;;;25.50;3.80;;;6.90;99.90;;;;;;5112945;28;20485;-55
2021/03/12 04:39:00;;;;;;;17.77;2.53;;;6.90;99.90;;;;;;5105490;27;20024;-54
2021/03/12 04:41:26;;;;;;;18.40;4.05;;;6.90;99.90;;;;;;5108467;28;20102;-56
2021/03/12 04:43:52;;;;;;;24.45;2.95;;;6.90;99.90;;;;;;5108344;28;20102;-57
2021/03/12 04:46:18;;;;;;;17.33;3.42;;;6.80;99.90;;;;;;5112911;28;20024;-56
2021/03/12 04:48:44;;;;;;;16.95;3.92;;;6.80;99.90;;;;;;5107996;28;20028;-55
2021/03/12 04:51:11;;;;;;;14.70;3.28;;;6.80;99.90;;;;;;5102933;28;20034;-56
2021/03/12 04:53:41;;;;;;;24.65;4.22;;;6.80;99.90;;;;;;5111811;28;20027;-56
2021/03/12 04:56:07;;;;;;;14.00;4.38;;;6.80;99.90;;;;;;5112614;28;20047;-58
2021/03/12 04:58:33;;;;;;;25.95;4.65;;;6.80;99.90;;;;;;5110012;28;20411;-55
2021/03/12 05:00:59;;;;;;;24.92;3.00;;;6.80;99.90;;;;;;5107305;27;20156;-57
2021/03/12 05:03:25;;;;;;;16.38;2.95;;;6.80;99.90;;;;;;5113105;28;20411;-57
2021/03/12 05:05:54;;;;;;;22.90;3.63;;;6.80;99.90;;;;;;5111996;28;20031;-57
2021/03/12 05:08:20;;;;;;;22.00;2.83;;;6.80;99.90;;;;;;5106474;27;20769;-55
2021/03/12 05:11:05;;;;;;;16.65;2.53;;;6.80;99.90;;;;;;5101435;28;20392;-57
2021/03/12 05:13:30;;;;;;;21.33;2.28;;;6.80;99.90;;;;;;5109429;27;20031;-57
2021/03/12 05:15:56;;;;;;;18.65;2.45;;;6.80;99.90;;;;;;5112468;27;20076;-54
2021/03/12 05:18:22;;;;;;;13.50;2.70;;;6.80;99.90;;;;;;5108106;28;20038;-54
2021/03/12 05:20:49;;;;;;;14.27;2.42;;;6.80;99.90;;;;;;5108301;28;20497;-54
2021/03/12 05:23:15;;;;;;;23.85;3.17;;;6.80;99.90;;;;;;5112437;28;20034;-55
2021/03/12 05:25:42;;;;;;;18.75;3.47;;;6.80;99.90;;;;;;5108393;28;20027;-54
2021/03/12 05:28:08;;;;;;;15.25;2.42;;;6.80;99.90;;;;;;5108119;28;20488;-57
2021/03/12 05:30:34;;;;;;;17.05;2.40;;;6.80;99.90;;;;;;5107920;28;20139;-57
2021/03/12 05:32:59;;;;;;;22.05;3.05;;;6.80;99.90;;;;;;5107665;28;20544;-58
2021/03/12 05:35:25;;;;;;;18.48;2.47;;;6.80;99.90;;;;;;5107221;28;20884;-55
2021/03/12 05:37:50;;;;;;;16.17;2.75;;;6.80;99.90;;;;;;5112307;28;20023;-57
2021/03/12 05:40:16;;;;;;;12.07;2.22;;;6.80;99.90;;;;;;5110314;28;20031;-56
2021/03/12 05:42:43;;;;;;;12.18;2.35;;;6.80;99.90;;;;;;5111208;28;20039;-58
2021/03/12 05:45:10;;;;;;;15.23;2.38;;;6.90;99.90;;;;;;5108798;27;20108;-57
2021/03/12 05:47:36;;;;;;;18.98;2.58;;;6.90;99.90;;;;;;5110981;27;20040;-58
2021/03/12 05:50:02;;;;;;;27.35;3.97;;;6.90;99.90;;;;;;5105376;28;20028;-57
2021/03/12 05:52:27;;;;;;;14.27;2.67;;;6.90;99.90;;;;;;5110292;28;20424;-53
2021/03/12 05:54:54;;;;;;;28.50;3.47;;;7.00;99.90;;;;;;5107739;27;20055;-56
2021/03/12 05:57:24;;;;;;;17.77;2.13;;;7.00;99.90;;;;;;5112393;27;20077;-54
2021/03/12 05:59:51;;;;;;;24.70;2.60;;;6.90;99.90;;;;;;5111249;28;20024;-55
2021/03/12 06:02:17;;;;;;;18.15;2.60;;;6.90;99.90;;;;;;5113477;27;20088;-57
2021/03/12 06:04:45;;;;;;;14.25;2.65;;;6.80;99.90;;;;;;5100007;28;20031;-55
2021/03/12 06:07:13;;;;;;;14.30;2.38;;;6.80;99.90;;;;;;5106371;28;20497;-53
2021/03/12 06:09:42;;;;;;;17.65;2.45;;;6.80;99.90;;;;;;5101901;28;20039;-57
2021/03/12 06:12:09;;;;;;;19.48;4.18;;;6.80;99.90;;;;;;5103762;28;20076;-56
2021/03/12 06:14:48;;;;;;;15.45;2.95;;;6.80;99.90;;;;;;5106075;27;20039;-55
2021/03/12 06:17:37;;;;;;;19.13;2.80;;;6.80;99.90;;;;;;5122839;22;20044;-55
2021/03/12 06:20:08;;;;;;;23.38;2.90;;;6.80;99.90;;;;;;5089495;28;20054;-55
2021/03/12 06:22:35;;;;;;;22.50;3.10;;;6.80;99.90;;;;;;5087142;28;20134;-51
2021/03/12 06:25:14;;;;;;;17.98;3.10;;;6.80;99.90;;;;;;5098128;28;20024;-53
2021/03/12 06:27:41;;;;;;;23.73;3.55;;;6.80;99.90;;;;;;5092026;28;20054;-53
2021/03/12 06:30:07;;;;;;;25.33;5.40;;;6.90;99.90;;;;;;5091865;28;20528;-55
2021/03/12 06:32:44;;;;;;;25.75;5.38;;;6.90;99.90;;;;;;5092580;28;20043;-52
2021/03/12 06:35:16;;;;;;;22.02;4.10;;;6.90;99.90;;;;;;5090558;28;20020;-56
2021/03/12 06:37:45;;;;;;;21.02;4.80;;;6.90;99.90;;;;;;5092701;28;20028;-52
2021/03/12 06:40:25;;;;;;;35.13;9.25;;;7.00;99.90;;;;;;5089364;28;20028;-57
2021/03/12 06:43:04;;;;;;;23.25;4.35;;;7.00;99.90;;;;;;5099873;28;20077;-54
2021/03/12 06:45:51;;;;;;;24.40;4.95;;;7.10;99.90;;;;;;5096110;28;20107;-51
2021/03/12 06:48:21;;;;;;;27.08;6.30;;;7.10;99.90;;;;;;5087013;28;20493;-53
2021/03/12 06:50:49;;;;;;;22.75;4.80;;;7.20;99.90;;;;;;5092323;28;20050;-53
2021/03/12 06:53:31;;;;;;;18.15;3.78;;;7.20;99.90;;;;;;5092597;28;20043;-56
2021/03/12 06:56:27;;;;;;;22.73;4.53;;;7.20;99.90;;;;;;5091943;28;20035;-54
2021/03/12 06:59:02;;;;;;;29.20;5.53;;;7.20;99.90;;;;;;5072831;28;20020;-54
2021/03/12 07:01:27;;;;;;;27.42;4.78;;;7.20;99.90;;;;;;5089988;28;20024;-55
2021/03/12 07:04:09;;;;;;;28.38;6.50;;;7.20;99.90;;;;;;5098789;28;20515;-51
2021/03/12 07:06:48;;;;;;;19.83;5.25;;;7.20;99.90;;;;;;5100998;28;20407;-52
2021/03/12 07:09:15;;;;;;;21.75;5.50;;;7.30;99.90;;;;;;5089342;28;20455;-54
2021/03/12 07:11:41;;;;;;;24.73;5.65;;;7.30;99.90;;;;;;5094505;28;20066;-53
2021/03/12 07:14:07;;;;;;;21.17;5.20;;;7.40;99.90;;;;;;5103726;28;20452;-53
2021/03/12 07:16:33;;;;;;;26.00;5.75;;;7.30;99.90;;;;;;5091861;28;20032;-52
2021/03/12 07:18:59;;;;;;;21.73;4.97;;;7.30;99.90;;;;;;5094581;28;20020;-51
2021/03/12 07:21:28;;;;;;;23.17;4.53;;;7.30;99.90;;;;;;5095236;28;20035;-54
2021/03/12 07:23:57;;;;;;;27.45;4.90;;;7.30;99.90;;;;;;5098279;28;20049;-52
2021/03/12 07:26:23;;;;;;;19.73;4.35;;;7.40;99.90;;;;;;5089316;28;20074;-52
2021/03/12 07:28:56;;;;;;;27.02;5.30;;;7.40;99.90;;;;;;5073405;28;20028;-51
2021/03/12 07:31:25;;;;;;;28.13;5.38;;;7.40;99.90;;;;;;5085362;28;20031;-52
2021/03/12 07:33:52;;;;;;;28.90;5.22;;;7.40;99.90;;;;;;5099454;28;20036;-52
2021/03/12 07:36:25;;;;;;;17.70;4.05;;;7.40;99.90;;;;;;5098735;28;20044;-53
2021/03/12 07:38:51;;;;;;;22.30;3.70;;;7.50;99.90;;;;;;5098797;28;20056;-52
2021/03/12 07:41:17;;;;;;;22.90;2.97;;;7.50;99.90;;;;;;5097528;28;20357;-54
2021/03/12 07:43:44;;;;;;;13.45;3.72;;;7.60;99.90;;;;;;5093282;28;20020;-53
2021/03/12 07:46:12;;;;;;;16.00;3.40;;;7.60;99.90;;;;;;5091013;28;20061;-54
2021/03/12 07:48:38;;;;;;;19.60;4.03;;;7.60;99.90;;;;;;5091058;28;20482;-50
2021/03/12 07:51:06;;;;;;;19.08;3.35;;;7.70;99.90;;;;;;5091043;28;20099;-51
2021/03/12 07:53:50;;;;;;;18.95;2.85;;;7.80;99.90;;;;;;5090755;28;20028;-50
2021/03/12 07:56:17;;;;;;;17.85;2.80;;;7.80;99.90;;;;;;5084806;28;20028;-52
2021/03/12 07:58:55;;;;;;;19.73;3.20;;;7.90;99.90;;;;;;5097540;28;20030;-53
2021/03/12 08:01:21;;;;;;;18.15;3.58;;;7.90;99.90;;;;;;5100666;28;20039;-54
2021/03/12 08:03:49;;;;;;;21.17;3.75;;;8.00;99.90;;;;;;5094365;28;20500;-51
2021/03/12 08:06:20;;;;;;;22.42;3.40;;;8.10;99.90;;;;;;5095402;28;20067;-51
2021/03/12 08:08:47;;;;;;;26.00;2.58;;;8.20;99.90;;;;;;5090847;28;20113;-53
2021/03/12 08:11:29;;;;;;;16.02;2.83;;;8.20;99.90;;;;;;5093345;28;20065;-55
2021/03/12 08:14:17;;;;;;;19.98;3.30;;;8.40;99.90;;;;;;5098721;28;20023;-51
2021/03/12 08:16:57;;;;;;;16.13;2.78;;;8.50;99.90;;;;;;5100498;28;20488;-53
2021/03/12 08:19:30;;;;;;;20.98;3.88;;;8.50;99.90;;;;;;5093392;28;20024;-54
2021/03/12 08:21:56;;;;;;;16.65;2.50;;;8.60;99.90;;;;;;5100148;28;20157;-55
2021/03/12 08:24:49;;;;;;;17.40;2.70;;;8.60;99.90;;;;;;5094034;28;20129;-54
2021/03/12 08:27:35;;;;;;;26.33;5.20;;;8.60;99.90;;;;;;5089066;28;20658;-51
2021/03/12 08:30:02;;;;;;;18.20;2.53;;;8.60;99.90;;;;;;5107183;28;20028;-51
2021/03/12 08:32:39;;;;;;;12.82;2.45;;;8.60;99.90;;;;;;5096029;28;20081;-53
2021/03/12 08:35:25;;;;;;;14.57;2.13;;;8.50;99.90;;;;;;5094338;28;20035;-52
2021/03/12 08:37:51;;;;;;;14.90;2.33;;;8.50;99.90;;;;;;5097228;28;20122;-51
2021/03/12 08:40:17;;;;;;;13.45;1.92;;;8.60;99.90;;;;;;5099621;28;20120;-54
2021/03/12 08:43:10;;;;;;;16.95;2.78;;;8.60;99.90;;;;;;5093131;28;20039;-53
2021/03/12 08:45:45;;;;;;;9.27;1.90;;;8.60;99.90;;;;;;5094792;28;20059;-54
2021/03/12 08:48:13;;;;;;;23.27;3.22;;;8.60;99.90;;;;;;5099838;28;20486;-56
2021/03/12 08:50:49;;;;;;;9.85;1.80;;;8.60;99.90;;;;;;5092765;28;20119;-58
2021/03/12 08:53:15;;;;;;;19.42;4.80;;;8.60;99.90;;;;;;5100124;28;20049;-57
2021/03/12 08:55:44;;;;;;;31.92;4.32;;;8.60;99.90;;;;;;5092055;28;20493;-54
2021/03/12 08:58:21;;;;;;;22.77;3.45;;;8.70;99.90;;;;;;5088894;28;20028;-52
2021/03/12 09:00:53;;;;;;;15.80;2.30;;;8.70;99.90;;;;;;5091188;28;20174;-55
2021/03/12 09:03:27;;;;;;;19.20;2.67;;;8.70;99.90;;;;;;5109978;28;20024;-56
2021/03/12 09:06:00;;;;;;;16.50;2.17;;;8.70;99.90;;;;;;5095854;28;20482;-52
2021/03/12 09:08:27;;;;;;;13.88;2.72;;;8.80;99.90;;;;;;5090386;28;20040;-52
2021/03/12 09:10:54;;;;;;;13.68;2.90;;;8.80;99.90;;;;;;5101107;28;20055;-52
2021/03/12 09:13:39;;;;;;;28.70;4.82;;;8.80;99.90;;;;;;5092586;28;20021;-54
2021/03/12 09:16:06;;;;;;;23.08;3.15;;;8.90;99.90;;;;;;5089295;28;20074;-51
2021/03/12 09:18:34;;;;;;;13.98;2.45;;;8.90;99.90;;;;;;5092771;28;20389;-53
2021/03/12 09:21:04;;;;;;;12.93;2.28;;;9.00;99.90;;;;;;5090511;28;20020;-51
2021/03/12 09:23:48;;;;;;;15.32;2.58;;;9.00;99.90;;;;;;5105879;28;20051;-54
2021/03/12 09:26:19;;;;;;;16.67;2.42;;;8.90;99.90;;;;;;5092445;28;21024;-51
2021/03/12 09:28:46;;;;;;;19.05;4.05;;;8.90;99.90;;;;;;5095673;28;20430;-52
2021/03/12 09:31:15;;;;;;;24.60;4.10;;;9.00;99.90;;;;;;5100404;28;20393;-52
2021/03/12 09:33:47;;;;;;;14.88;3.03;;;9.10;99.90;;;;;;5097529;28;20124;-56
2021/03/12 09:36:37;;;;;;;23.73;2.50;;;9.20;99.90;;;;;;5089656;28;20070;-52
2021/03/12 09:39:19;;;;;;;20.40;3.63;;;9.30;99.90;;;;;;5087600;28;20355;-52
2021/03/12 09:41:59;;;;;;;15.57;2.45;;;9.40;99.90;;;;;;5088746;28;20024;-52
2021/03/12 09:44:27;;;;;;;21.75;2.67;;;9.30;99.90;;;;;;5088974;28;20023;-54
2021/03/12 09:46:58;;;;;;;13.10;2.30;;;9.30;99.90;;;;;;5088150;28;20526;-54
2021/03/12 09:49:42;;;;;;;19.75;2.63;;;9.40;99.90;;;;;;5072988;28;20024;-52
2021/03/12 09:52:18;;;;;;;16.90;3.63;;;9.50;99.90;;;;;;5100318;28;20058;-52
2021/03/12 09:54:45;;;;;;;9.18;2.15;;;9.60;99.90;;;;;;5103482;28;20020;-51
2021/03/12 09:57:16;;;;;;;10.85;1.85;;;9.70;99.90;;;;;;5094428;28;20097;-52
2021/03/12 09:59:46;;;;;;;13.48;2.15;;;9.70;99.90;;;;;;5097507;28;20024;-52
2021/03/12 10:02:12;;;;;;;15.35;1.80;;;9.70;99.90;;;;;;5100650;28;20078;-53
2021/03/12 10:04:40;;;;;;;16.73;2.17;;;9.80;99.90;;;;;;5087419;28;20024;-51
2021/03/12 10:07:10;;;;;;;11.07;2.15;;;9.90;99.90;;;;;;5091741;28;20028;-57
2021/03/12 10:09:43;;;;;;;10.57;1.58;;;10.10;99.90;;;;;;5092260;28;20028;-52
2021/03/12 10:12:18;;;;;;;16.40;2.53;;;10.00;99.90;;;;;;5092114;28;20104;-54
2021/03/12 10:14:46;;;;;;;21.98;2.28;;;9.90;99.90;;;;;;5089437;28;20035;-54
2021/03/12 10:17:18;;;;;;;11.07;2.33;;;10.20;99.90;;;;;;5102279;28;20020;-57
2021/03/12 10:19:57;;;;;;;19.30;3.67;;;10.60;99.90;;;;;;5096228;28;20020;-55
2021/03/12 10:22:34;;;;;;;12.95;1.73;;;10.70;99.90;;;;;;5090637;28;20521;-52
2021/03/12 10:25:11;;;;;;;13.75;2.03;;;10.80;99.90;;;;;;5094733;28;20039;-52
2021/03/12 10:27:41;;;;;;;14.23;2.05;;;11.00;99.90;;;;;;5095850;28;20130;-53
2021/03/12 10:30:09;;;;;;;12.10;2.92;;;11.20;99.90;;;;;;5091907;28;20059;-53
2021/03/12 10:32:55;;;;;;;16.63;2.45;;;11.20;99.90;;;;;;5101993;28;20040;-54
2021/03/12 10:35:25;;;;;;;8.93;1.55;;;10.70;99.90;;;;;;5089922;28;20098;-52
2021/03/12 10:37:54;;;;;;;16.00;3.33;;;10.60;99.90;;;;;;5085990;28;20417;-53
2021/03/12 10:40:21;;;;;;;18.60;2.88;;;10.70;99.90;;;;;;5098573;28;20106;-55
2021/03/12 10:42:47;;;;;;;11.25;1.67;;;10.90;99.90;;;;;;5094819;28;20066;-54
2021/03/12 10:45:29;;;;;;;17.40;2.08;;;11.10;99.90;;;;;;5088641;28;20106;-53
2021/03/12 10:48:05;;;;;;;11.90;1.70;;;11.50;99.90;;;;;;5088429;28;20016;-52
2021/03/12 10:50:36;;;;;;;12.25;1.92;;;11.20;99.90;;;;;;5090496;28;20032;-56
2021/03/12 10:53:13;;;;;;;12.63;1.90;;;11.10;99.90;;;;;;5090691;28;20393;-55
2021/03/12 10:55:44;;;;;;;13.15;2.42;;;11.00;99.90;;;;;;5091104;28;20043;-54
2021/03/12 10:58:30;;;;;;;7.20;2.20;;;11.00;99.90;;;;;;5094073;28;20019;-57
2021/03/12 11:01:26;;;;;;;9.43;1.90;;;11.10;99.90;;;;;;5079856;28;20382;-55
2021/03/12 11:03:53;;;;;;;12.65;1.95;;;11.20;99.90;;;;;;5084872;28;20065;-52
2021/03/12 11:06:20;;;;;;;16.02;1.75;;;11.40;99.90;;;;;;5096439;28;20061;-53
2021/03/12 11:08:46;;;;;;;10.88;1.67;;;11.80;99.90;;;;;;5095220;28;20024;-54
2021/03/12 11:11:16;;;;;;;10.43;1.63;;;11.60;99.90;;;;;;5087472;28;20096;-54
2021/03/12 11:13:42;;;;;;;13.77;2.00;;;11.50;99.90;;;;;;5088030;28;20438;-53
2021/03/12 11:16:08;;;;;;;12.80;2.13;;;11.30;99.90;;;;;;5094856;28;20105;-54
2021/03/12 11:18:35;;;;;;;9.32;1.90;;;11.20;99.90;;;;;;5089598;28;20077;-53
2021/03/12 11:21:05;;;;;;;15.07;2.13;;;11.30;99.90;;;;;;5089304;28;20028;-56
2021/03/12 11:23:30;;;;;;;16.88;2.47;;;11.20;99.90;;;;;;5092139;28;20111;-52
2021/03/12 11:25:57;;;;;;;12.93;2.15;;;11.20;99.90;;;;;;5095523;28;20036;-55
2021/03/12 11:28:25;;;;;;;7.97;2.08;;;11.20;99.90;;;;;;5099819;28;20032;-51
2021/03/12 11:30:55;;;;;;;7.65;2.00;;;11.40;99.90;;;;;;5088102;28;20063;-52
2021/03/12 11:33:21;;;;;;;7.05;1.50;;;11.60;99.90;;;;;;5103309;28;20039;-52
2021/03/12 11:35:47;;;;;;;12.70;2.95;;;11.60;99.90;;;;;;5091107;28;20028;-55
2021/03/12 11:38:12;;;;;;;14.77;1.70;;;11.60;99.90;;;;;;5090114;28;20028;-53
2021/03/12 11:40:38;;;;;;;13.57;1.60;;;11.40;99.90;;;;;;5098769;28;20039;-52
2021/03/12 11:43:05;;;;;;;12.18;1.92;;;11.50;99.90;;;;;;5089908;28;20597;-55
2021/03/12 11:45:31;;;;;;;9.60;1.88;;;11.50;99.90;;;;;;5095520;28;20107;-58
2021/03/12 11:47:58;;;;;;;16.70;2.28;;;11.50;99.90;;;;;;5093846;28;20028;-54
2021/03/12 11:50:26;;;;;;;10.73;2.70;;;11.50;99.90;;;;;;5092483;28;20481;-52
2021/03/12 11:52:52;;;;;;;7.97;1.08;;;11.60;99.90;;;;;;5100239;28;20032;-57
2021/03/12 11:55:18;;;;;;;11.65;1.80;;;12.00;99.90;;;;;;5090664;28;20032;-54
2021/03/12 11:57:44;;;;;;;10.85;2.00;;;12.20;99.90;;;;;;5092938;28;20393;-55
2021/03/12 12:00:12;;;;;;;11.73;1.65;;;12.40;99.90;;;;;;5088257;28;20020;-53
2021/03/12 12:02:38;;;;;;;9.10;1.60;;;12.50;99.90;;;;;;5089632;28;20038;-54
2021/03/12 12:05:06;;;;;;;9.93;1.58;;;12.70;99.90;;;;;;5088632;28;20024;-52
2021/03/12 12:07:32;;;;;;;8.13;1.58;;;12.90;99.90;;;;;;5087438;28;20025;-54
2021/03/12 12:09:58;;;;;;;5.90;1.42;;;13.10;99.90;;;;;;5097908;28;20036;-54
2021/03/12 12:12:24;;;;;;;9.43;1.70;;;12.90;99.90;;;;;;5092087;28;20446;-53
2021/03/12 12:14:49;;;;;;;6.15;1.35;;;12.90;99.90;;;;;;5087503;28;20048;-54
2021/03/12 12:17:15;;;;;;;15.40;2.00;;;12.70;99.90;;;;;;5098220;22;20136;-54
2021/03/12 12:19:41;;;;;;;10.00;1.85;;;12.60;99.90;;;;;;5084750;28;20032;-57
2021/03/12 12:22:09;;;;;;;9.15;1.65;;;12.30;99.90;;;;;;5084945;28;20107;-53
2021/03/12 12:24:35;;;;;;;9.73;3.17;;;12.10;99.90;;;;;;5084495;28;20028;-54
2021/03/12 12:27:01;;;;;;;8.88;2.00;;;12.10;99.90;;;;;;5085664;28;20042;-54
2021/03/12 12:29:26;;;;;;;11.98;1.58;;;12.50;99.90;;;;;;5080027;28;20031;-57
2021/03/12 12:31:52;;;;;;;11.25;2.60;;;12.70;99.90;;;;;;5083108;28;20043;-55
2021/03/12 12:34:17;;;;;;;8.73;1.90;;;12.30;99.90;;;;;;5085953;28;20017;-54
2021/03/12 12:36:43;;;;;;;18.65;2.65;;;12.20;99.90;;;;;;5085956;28;20381;-53
2021/03/12 12:39:09;;;;;;;8.60;1.75;;;12.40;99.90;;;;;;5082851;28;20561;-58
2021/03/12 12:41:39;;;;;;;11.95;1.95;;;12.20;99.90;;;;;;5076833;28;20036;-54
2021/03/12 12:44:09;;;;;;;12.10;1.80;;;12.20;99.90;;;;;;5078320;28;20493;-59
2021/03/12 12:46:39;;;;;;;11.43;2.00;;;12.30;99.90;;;;;;5083600;28;20075;-53
2021/03/12 12:49:05;;;;;;;6.72;1.95;;;12.80;99.90;;;;;;5089027;28;20028;-55
2021/03/12 12:51:31;;;;;;;10.77;1.90;;;13.30;99.90;;;;;;5087789;28;20054;-58
2021/03/12 12:53:57;;;;;;;6.45;1.48;;;13.50;99.90;;;;;;5087754;28;20103;-54
2021/03/12 12:56:22;;;;;;;7.88;1.65;;;13.50;99.90;;;;;;5083233;28;20032;-54